Terminal Aerodrome Forecast
Issued by NWS

Home | Current Version | Previous Version | Text Only | Print | Product List | Glossary On
Versions: 1 2 3 4 5 6 7 8 9 10 11 12 13 14 15 16 17 18 19
000
FTUS43 KDLH 010527
TAFBRD
TAF
KBRD 010527Z 0106/0206 28003KT P6SM SKC
     FM011700 27008KT P6SM SCT100
     FM012100 24005KT P6SM BKN100
     FM020300 VRB03KT P6SM VCSH SCT050 BKN150=

USA.gov is the U.S. government's official web portal to all federal, state and local government web resources and services.